Terminal Aerodrome Forecast
Issued by NWS Cleveland, OH

Home | Current Version | Previous Version | Graphics & Text | Print | Product List | Glossary On
Versions: 1 2 3 4 5 6 7 8 9 10 11 12 13 14 15 16 17 18
853
FTUS41 KCLE 202341
TAFTOL
TAF
KTOL 202341Z 2100/2124 20010KT 6SM -SHRA BR SCT020 OVC040
      TEMPO 2100/2102 4SM SHRA BR BKN020
     FM210200 24012G18KT P6SM VCSH BKN035 OVC060
      TEMPO 2102/2106 SCT035 BKN060
     FM210600 25009KT P6SM SCT012 BKN035
      TEMPO 2109/2113 BKN012
     FM211500 27012G20KT P6SM BKN035
     FM212200 27012KT P6SM SCT025 BKN050=

USA.gov is the U.S. government's official web portal to all federal, state and local government web resources and services.